DAL4152 KCHS-KBOS
Flight info
| Callsign | DAL4152 |
|---|---|
| Flight time | N/A |
| Altitude | 35000 |
| Route | SWPFX3 FILLI ELLDE Q97 PAACK JAMIE Q133 JFK ROBUC3 |
| Aircraft | A21N/M-VGDW/C |
Departure
| Time | 2026-05-05 00:20 |
|---|---|
| Airport | Charleston International Airport (KCHS) |
Arrival
| Time | N/A |
|---|---|
| Airport | Boston Logan International Airport (KBOS) |
| Time | Latitude | Longitude | Altitude | Speed | Heading |
|---|---|---|---|---|---|
| 2026-05-04 23:51 | 32.88576 | -80.03837 | 37 ft | 0 kts | 122° |
| 2026-05-05 00:06 | 32.88579 | -80.03843 | 36 ft | 3 kts | 122° |
| 2026-05-05 00:07 | 32.88595 | -80.03874 | 35 ft | 3 kts | 28° |
| 2026-05-05 00:07 | 32.88586 | -80.03879 | 32 ft | 0 kts | 356° |
| 2026-05-05 00:09 | 32.88601 | -80.03887 | 36 ft | 6 kts | 332° |
| 2026-05-05 00:09 | 32.88627 | -80.03953 | 34 ft | 9 kts | 291° |
| 2026-05-05 00:09 | 32.88655 | -80.04010 | 33 ft | 7 kts | 303° |
| 2026-05-05 00:10 | 32.88672 | -80.04046 | 33 ft | 5 kts | 296° |
| 2026-05-05 00:10 | 32.88668 | -80.04113 | 33 ft | 12 kts | 237° |
| 2026-05-05 00:10 | 32.88603 | -80.04217 | 33 ft | 17 kts | 232° |
| 2026-05-05 00:10 | 32.88537 | -80.04314 | 31 ft | 13 kts | 230° |
| 2026-05-05 00:11 | 32.88490 | -80.04385 | 31 ft | 8 kts | 237° |
| 2026-05-05 00:11 | 32.88475 | -80.04427 | 31 ft | 3 kts | 254° |
| 2026-05-05 00:11 | 32.88474 | -80.04445 | 31 ft | 6 kts | 269° |
| 2026-05-05 00:11 | 32.88484 | -80.04504 | 31 ft | 8 kts | 286° |
| 2026-05-05 00:12 | 32.88513 | -80.04583 | 31 ft | 12 kts | 304° |
| 2026-05-05 00:12 | 32.88592 | -80.04643 | 31 ft | 15 kts | 335° |
| 2026-05-05 00:12 | 32.88707 | -80.04699 | 30 ft | 20 kts | 345° |
| 2026-05-05 00:12 | 32.88829 | -80.04665 | 30 ft | 19 kts | 35° |
| 2026-05-05 00:13 | 32.88951 | -80.04587 | 32 ft | 20 kts | 24° |
| 2026-05-05 00:13 | 32.89076 | -80.04524 | 36 ft | 20 kts | 24° |
| 2026-05-05 00:13 | 32.89201 | -80.04463 | 41 ft | 13 kts | 5° |
| 2026-05-05 00:13 | 32.89296 | -80.04468 | 43 ft | 15 kts | 2° |
| 2026-05-05 00:14 | 32.89409 | -80.04464 | 45 ft | 17 kts | 2° |
| 2026-05-05 00:14 | 32.89534 | -80.04459 | 49 ft | 19 kts | 2° |
| 2026-05-05 00:14 | 32.89669 | -80.04454 | 51 ft | 21 kts | 2° |
| 2026-05-05 00:14 | 32.89827 | -80.04448 | 49 ft | 25 kts | 1° |
| 2026-05-05 00:15 | 32.90012 | -80.04449 | 49 ft | 28 kts | 359° |
| 2026-05-05 00:15 | 32.90204 | -80.04448 | 45 ft | 26 kts | 5° |
| 2026-05-05 00:15 | 32.90364 | -80.04439 | 45 ft | 20 kts | 1° |
| 2026-05-05 00:15 | 32.90467 | -80.04486 | 45 ft | 13 kts | 333° |
| 2026-05-05 00:16 | 32.90531 | -80.04535 | 45 ft | 10 kts | 326° |
| 2026-05-05 00:16 | 32.90593 | -80.04585 | 46 ft | 11 kts | 325° |
| 2026-05-05 00:16 | 32.90654 | -80.04636 | 49 ft | 12 kts | 318° |
| 2026-05-05 00:16 | 32.90712 | -80.04680 | 50 ft | 10 kts | 329° |
| 2026-05-05 00:17 | 32.90789 | -80.04731 | 50 ft | 16 kts | 330° |
| 2026-05-05 00:17 | 32.90902 | -80.04814 | 53 ft | 22 kts | 328° |
| 2026-05-05 00:17 | 32.91049 | -80.04923 | 49 ft | 29 kts | 328° |
| 2026-05-05 00:17 | 32.91164 | -80.04991 | 48 ft | 8 kts | 352° |
| 2026-05-05 00:18 | 32.91202 | -80.04979 | 51 ft | 0 kts | 31° |
| 2026-05-05 00:18 | 32.91203 | -80.04978 | 51 ft | 2 kts | 32° |
| 2026-05-05 00:18 | 32.91236 | -80.04919 | 48 ft | 6 kts | 58° |
| 2026-05-05 00:18 | 32.91255 | -80.04882 | 54 ft | 9 kts | 58° |
| 2026-05-05 00:19 | 32.91280 | -80.04811 | 51 ft | 6 kts | 92° |
| 2026-05-05 00:19 | 32.91265 | -80.04784 | 50 ft | 6 kts | 132° |
| 2026-05-05 00:19 | 32.91031 | -80.04590 | 49 ft | 75 kts | 148° |
| 2026-05-05 00:19 | 32.90404 | -80.04128 | 46 ft | 138 kts | 147° |
| 2026-05-05 00:20 | 32.89437 | -80.03391 | 201 ft | 184 kts | 148° |
| 2026-05-05 00:20 | 32.88363 | -80.02525 | 1009 ft | 187 kts | 146° |
| 2026-05-05 00:20 | 32.87318 | -80.01607 | 1947 ft | 191 kts | 146° |
| 2026-05-05 00:20 | 32.86208 | -80.00594 | 2517 ft | 212 kts | 139° |
| 2026-05-05 00:21 | 32.85410 | -79.99048 | 3181 ft | 233 kts | 103° |
| 2026-05-05 00:21 | 32.85487 | -79.97059 | 3885 ft | 252 kts | 71° |
| 2026-05-05 00:21 | 32.86457 | -79.95303 | 4546 ft | 267 kts | 40° |
| 2026-05-05 00:21 | 32.88107 | -79.94268 | 5395 ft | 271 kts | 12° |
| 2026-05-05 00:22 | 32.89986 | -79.94275 | 6258 ft | 277 kts | 350° |
| 2026-05-05 00:22 | 32.91899 | -79.94775 | 7070 ft | 282 kts | 347° |
| 2026-05-05 00:22 | 32.93817 | -79.95330 | 7952 ft | 283 kts | 347° |
| 2026-05-05 00:22 | 32.95733 | -79.95801 | 8799 ft | 285 kts | 351° |
| 2026-05-05 00:23 | 32.97719 | -79.96113 | 9394 ft | 288 kts | 355° |
| 2026-05-05 00:23 | 32.99710 | -79.96248 | 9737 ft | 291 kts | 359° |
| 2026-05-05 00:23 | 33.01743 | -79.96239 | 9888 ft | 292 kts | 2° |
| 2026-05-05 00:23 | 33.03773 | -79.96117 | 9952 ft | 291 kts | 4° |
| 2026-05-05 00:24 | 33.05797 | -79.95913 | 9971 ft | 291 kts | 6° |
| 2026-05-05 00:24 | 33.07818 | -79.95648 | 9990 ft | 291 kts | 7° |
| 2026-05-05 00:24 | 33.09815 | -79.95341 | 9987 ft | 291 kts | 8° |
| 2026-05-05 00:24 | 33.11830 | -79.94999 | 9990 ft | 291 kts | 8° |
| 2026-05-05 00:25 | 33.13813 | -79.94640 | 9985 ft | 290 kts | 9° |
| 2026-05-05 00:25 | 33.15823 | -79.94260 | 9996 ft | 291 kts | 9° |
| 2026-05-05 00:25 | 33.17831 | -79.93868 | 10000 ft | 291 kts | 9° |
| 2026-05-05 00:25 | 33.19811 | -79.93474 | 9995 ft | 291 kts | 9° |
| 2026-05-05 00:26 | 33.21820 | -79.93071 | 9996 ft | 297 kts | 9° |
| 2026-05-05 00:26 | 33.23957 | -79.92640 | 10003 ft | 330 kts | 9° |
| 2026-05-05 00:26 | 33.26342 | -79.92158 | 9999 ft | 362 kts | 9° |
| 2026-05-05 00:26 | 33.28866 | -79.91647 | 9994 ft | 374 kts | 9° |
| 2026-05-05 00:27 | 33.31429 | -79.91126 | 10031 ft | 371 kts | 9° |
| 2026-05-05 00:27 | 33.33981 | -79.90604 | 10393 ft | 372 kts | 9° |
| 2026-05-05 00:27 | 33.36508 | -79.90074 | 11125 ft | 373 kts | 9° |
| 2026-05-05 00:27 | 33.39080 | -79.89457 | 11906 ft | 376 kts | 10° |
| 2026-05-05 00:28 | 33.41640 | -79.88791 | 12643 ft | 380 kts | 11° |
| 2026-05-05 00:28 | 33.44256 | -79.88085 | 13383 ft | 384 kts | 11° |
| 2026-05-05 00:28 | 33.46851 | -79.87374 | 14081 ft | 388 kts | 11° |
| 2026-05-05 00:28 | 33.49505 | -79.86641 | 14708 ft | 392 kts | 11° |
| 2026-05-05 00:29 | 33.52157 | -79.85905 | 15324 ft | 396 kts | 11° |
| 2026-05-05 00:29 | 33.54863 | -79.85151 | 15950 ft | 400 kts | 11° |
| 2026-05-05 00:29 | 33.57597 | -79.84386 | 16581 ft | 403 kts | 11° |
| 2026-05-05 00:29 | 33.60321 | -79.83623 | 17163 ft | 407 kts | 10° |
| 2026-05-05 00:30 | 33.63106 | -79.82845 | 17760 ft | 411 kts | 10° |
| 2026-05-05 00:30 | 33.65887 | -79.82067 | 18338 ft | 415 kts | 10° |
| 2026-05-05 00:30 | 33.68722 | -79.81276 | 18844 ft | 419 kts | 10° |
| 2026-05-05 00:30 | 33.71592 | -79.80474 | 19346 ft | 422 kts | 10° |
| 2026-05-05 00:31 | 33.74441 | -79.79678 | 19823 ft | 426 kts | 10° |
| 2026-05-05 00:31 | 33.77359 | -79.78862 | 20312 ft | 430 kts | 9° |
| 2026-05-05 00:31 | 33.80275 | -79.78047 | 20804 ft | 433 kts | 9° |
| 2026-05-05 00:31 | 33.83199 | -79.77034 | 21258 ft | 441 kts | 20° |
| 2026-05-05 00:32 | 33.85820 | -79.75081 | 21715 ft | 453 kts | 38° |
| 2026-05-05 00:32 | 33.87959 | -79.72227 | 22163 ft | 462 kts | 51° |
| 2026-05-05 00:32 | 33.89774 | -79.69057 | 22598 ft | 467 kts | 54° |
| 2026-05-05 00:32 | 33.91536 | -79.65731 | 23032 ft | 472 kts | 55° |
| 2026-05-05 00:33 | 33.93259 | -79.62377 | 23450 ft | 476 kts | 56° |
| 2026-05-05 00:33 | 33.94998 | -79.58945 | 23837 ft | 479 kts | 56° |
| 2026-05-05 00:33 | 33.96723 | -79.55527 | 24212 ft | 482 kts | 56° |
| 2026-05-05 00:33 | 33.98479 | -79.52047 | 24614 ft | 485 kts | 56° |
| 2026-05-05 00:34 | 34.00229 | -79.48585 | 24989 ft | 487 kts | 56° |
| 2026-05-05 00:34 | 34.02012 | -79.45070 | 25360 ft | 490 kts | 56° |
| 2026-05-05 00:34 | 34.03806 | -79.41542 | 25740 ft | 493 kts | 56° |
| 2026-05-05 00:34 | 34.05599 | -79.38022 | 26099 ft | 496 kts | 55° |
| 2026-05-05 00:35 | 34.07391 | -79.34509 | 26463 ft | 498 kts | 55° |
| 2026-05-05 00:35 | 34.09223 | -79.30921 | 26944 ft | 498 kts | 55° |
| 2026-05-05 00:35 | 34.11021 | -79.27403 | 27461 ft | 497 kts | 55° |
| 2026-05-05 00:35 | 34.12849 | -79.23827 | 27961 ft | 496 kts | 55° |
| 2026-05-05 00:36 | 34.14643 | -79.20319 | 28461 ft | 495 kts | 55° |
| 2026-05-05 00:36 | 34.16471 | -79.16745 | 28966 ft | 494 kts | 55° |
| 2026-05-05 00:36 | 34.18265 | -79.13235 | 29461 ft | 494 kts | 55° |
| 2026-05-05 00:36 | 34.20079 | -79.09688 | 29967 ft | 493 kts | 55° |
| 2026-05-05 00:37 | 34.21865 | -79.06191 | 30396 ft | 492 kts | 55° |
| 2026-05-05 00:37 | 34.23669 | -79.02658 | 30785 ft | 492 kts | 55° |
| 2026-05-05 00:37 | 34.25445 | -78.99179 | 31180 ft | 492 kts | 55° |
| 2026-05-05 00:37 | 34.27251 | -78.95638 | 31565 ft | 492 kts | 55° |
| 2026-05-05 00:38 | 34.29046 | -78.92115 | 31940 ft | 492 kts | 55° |
| 2026-05-05 00:38 | 34.30825 | -78.88619 | 32309 ft | 491 kts | 55° |
| 2026-05-05 00:38 | 34.32623 | -78.85084 | 32681 ft | 491 kts | 55° |
| 2026-05-05 00:38 | 34.34402 | -78.81583 | 33050 ft | 491 kts | 55° |
| 2026-05-05 00:39 | 34.36202 | -78.78036 | 33386 ft | 491 kts | 55° |
| 2026-05-05 00:39 | 34.37971 | -78.74546 | 33724 ft | 492 kts | 55° |
| 2026-05-05 00:39 | 34.39984 | -78.71220 | 34019 ft | 485 kts | 41° |
| 2026-05-05 00:39 | 34.42461 | -78.68417 | 34296 ft | 482 kts | 36° |
| 2026-05-05 00:40 | 34.45011 | -78.65845 | 34563 ft | 480 kts | 34° |
| 2026-05-05 00:40 | 34.47605 | -78.63331 | 34831 ft | 477 kts | 33° |
| 2026-05-05 00:40 | 34.50200 | -78.60860 | 34977 ft | 471 kts | 33° |
| 2026-05-05 00:41 | 34.55432 | -78.55958 | 35072 ft | 482 kts | 32° |
| 2026-05-05 00:41 | 34.60853 | -78.50922 | 35090 ft | 496 kts | 32° |
| 2026-05-05 00:42 | 34.66401 | -78.45772 | 35091 ft | 510 kts | 33° |
| 2026-05-05 00:42 | 34.72071 | -78.40502 | 35077 ft | 516 kts | 33° |
| 2026-05-05 00:43 | 34.77717 | -78.35228 | 35070 ft | 508 kts | 33° |
| 2026-05-05 00:43 | 34.83307 | -78.29997 | 35076 ft | 508 kts | 33° |
| 2026-05-05 00:44 | 34.88929 | -78.24737 | 35077 ft | 510 kts | 33° |
| 2026-05-05 00:44 | 34.94560 | -78.19460 | 35078 ft | 508 kts | 33° |
| 2026-05-05 00:45 | 35.00176 | -78.14188 | 35073 ft | 509 kts | 33° |
| 2026-05-05 00:45 | 35.05794 | -78.08907 | 35083 ft | 510 kts | 33° |
| 2026-05-05 00:46 | 35.11408 | -78.03619 | 35081 ft | 509 kts | 33° |
| 2026-05-05 00:46 | 35.16987 | -77.98353 | 35074 ft | 509 kts | 33° |
| 2026-05-05 00:47 | 35.22586 | -77.93061 | 35040 ft | 510 kts | 33° |
| 2026-05-05 00:47 | 35.28194 | -77.87750 | 35037 ft | 509 kts | 33° |
| 2026-05-05 00:48 | 35.33780 | -77.82449 | 35039 ft | 509 kts | 33° |
| 2026-05-05 00:48 | 35.39376 | -77.77129 | 35062 ft | 510 kts | 33° |
| 2026-05-05 00:49 | 35.44985 | -77.71787 | 35064 ft | 510 kts | 33° |
| 2026-05-05 00:49 | 35.50616 | -77.66412 | 35062 ft | 510 kts | 33° |
| 2026-05-05 00:50 | 35.56306 | -77.61325 | 35052 ft | 508 kts | 29° |
| 2026-05-05 00:50 | 35.62221 | -77.56562 | 35048 ft | 508 kts | 28° |
| 2026-05-05 00:51 | 35.68201 | -77.51845 | 35040 ft | 507 kts | 28° |
| 2026-05-05 00:51 | 35.74121 | -77.47190 | 35038 ft | 507 kts | 28° |
| 2026-05-05 00:52 | 35.80070 | -77.42523 | 35040 ft | 509 kts | 28° |
| 2026-05-05 00:52 | 35.86045 | -77.37826 | 35031 ft | 509 kts | 28° |
| 2026-05-05 00:53 | 35.92032 | -77.33104 | 35053 ft | 509 kts | 28° |
| 2026-05-05 00:53 | 35.97960 | -77.28419 | 35057 ft | 509 kts | 28° |
| 2026-05-05 00:54 | 36.03961 | -77.23668 | 35047 ft | 510 kts | 28° |
| 2026-05-05 00:54 | 36.09888 | -77.18968 | 35026 ft | 510 kts | 28° |
| 2026-05-05 00:55 | 36.15886 | -77.14203 | 35029 ft | 511 kts | 28° |
| 2026-05-05 00:55 | 36.21852 | -77.09450 | 35029 ft | 510 kts | 28° |
| 2026-05-05 00:56 | 36.27811 | -77.04693 | 35030 ft | 510 kts | 28° |
| 2026-05-05 00:56 | 36.33772 | -76.99926 | 35026 ft | 510 kts | 28° |
| 2026-05-05 00:57 | 36.39733 | -76.95150 | 35022 ft | 510 kts | 28° |
| 2026-05-05 00:57 | 36.45712 | -76.90351 | 35015 ft | 509 kts | 28° |
| 2026-05-05 00:58 | 36.51637 | -76.85587 | 35012 ft | 509 kts | 28° |
| 2026-05-05 00:58 | 36.57561 | -76.80816 | 35011 ft | 509 kts | 28° |
| 2026-05-05 00:59 | 36.63524 | -76.76007 | 35007 ft | 509 kts | 28° |
| 2026-05-05 00:59 | 36.69456 | -76.71214 | 35030 ft | 508 kts | 28° |
| 2026-05-05 01:00 | 36.75367 | -76.66426 | 35029 ft | 507 kts | 28° |
| 2026-05-05 01:00 | 36.81274 | -76.61632 | 35036 ft | 506 kts | 28° |
| 2026-05-05 01:01 | 36.87168 | -76.56841 | 35027 ft | 506 kts | 28° |
| 2026-05-05 01:01 | 36.93057 | -76.52048 | 35018 ft | 505 kts | 29° |
| 2026-05-05 01:02 | 36.98942 | -76.47246 | 34979 ft | 503 kts | 29° |
| 2026-05-05 01:02 | 37.03795 | -76.43275 | 34973 ft | 502 kts | 29° |
| 2026-05-05 01:03 | 37.09645 | -76.38468 | 34977 ft | 503 kts | 29° |
| 2026-05-05 01:03 | 37.15505 | -76.33658 | 34978 ft | 502 kts | 29° |
| 2026-05-05 01:04 | 37.21321 | -76.28888 | 34979 ft | 500 kts | 29° |
| 2026-05-05 01:04 | 37.30058 | -76.21709 | 34978 ft | 499 kts | 29° |
| 2026-05-05 01:05 | 37.35871 | -76.16932 | 34986 ft | 497 kts | 30° |
| 2026-05-05 01:05 | 37.41641 | -76.12143 | 34986 ft | 499 kts | 30° |
| 2026-05-05 01:06 | 37.47404 | -76.07347 | 34989 ft | 498 kts | 30° |
| 2026-05-05 01:06 | 37.53199 | -76.02521 | 34988 ft | 496 kts | 30° |
| 2026-05-05 01:07 | 37.58949 | -75.97730 | 34990 ft | 496 kts | 30° |
| 2026-05-05 01:07 | 37.64696 | -75.92973 | 34992 ft | 497 kts | 30° |
| 2026-05-05 01:08 | 37.70469 | -75.88199 | 34993 ft | 496 kts | 30° |
| 2026-05-05 01:08 | 37.76254 | -75.83407 | 34992 ft | 495 kts | 30° |
| 2026-05-05 01:09 | 37.82005 | -75.78633 | 34989 ft | 495 kts | 30° |
| 2026-05-05 01:09 | 37.87733 | -75.73867 | 34994 ft | 495 kts | 30° |
| 2026-05-05 01:10 | 37.93502 | -75.69056 | 34995 ft | 495 kts | 30° |